createdAt,value
2022-12-03T00:00:12.405Z,24.00
2022-12-03T00:02:41.683Z,26.10
2022-12-03T00:05:10.161Z,30.50
2022-12-03T00:07:37.928Z,24.83
2022-12-03T00:10:09.551Z,26.77
2022-12-03T00:12:37.515Z,26.40
2022-12-03T00:15:07.401Z,24.55
2022-12-03T00:17:35.221Z,26.25
2022-12-03T00:20:03.142Z,24.33
2022-12-03T00:22:30.716Z,29.98
2022-12-03T00:24:58.528Z,25.60
2022-12-03T00:27:27.727Z,23.05
2022-12-03T00:29:55.533Z,26.48
2022-12-03T00:32:23.129Z,27.70
2022-12-03T00:34:51.260Z,24.73
2022-12-03T00:37:19.261Z,26.77
2022-12-03T00:39:47.029Z,29.83
2022-12-03T00:42:14.769Z,31.25
2022-12-03T00:44:43.201Z,31.20
2022-12-03T00:47:11.140Z,32.90
2022-12-03T00:49:39.034Z,29.48
2022-12-03T00:52:06.995Z,33.90
2022-12-03T00:54:34.921Z,30.95
2022-12-03T00:57:03.003Z,26.23
2022-12-03T00:59:30.917Z,28.27
2022-12-03T01:01:58.814Z,33.42
2022-12-03T01:04:26.792Z,32.65
2022-12-03T01:06:54.624Z,32.67
2022-12-03T01:09:22.658Z,31.05
2022-12-03T01:11:50.474Z,27.73
2022-12-03T01:14:19.593Z,31.63
2022-12-03T01:16:48.245Z,32.00
2022-12-03T01:19:16.564Z,30.65
2022-12-03T01:21:49.451Z,32.60
2022-12-03T01:24:18.574Z,31.70
2022-12-03T01:26:46.516Z,33.60
2022-12-03T01:29:15.532Z,36.25
2022-12-03T01:32:02.115Z,30.10
2022-12-03T01:34:30.116Z,30.85
2022-12-03T01:36:57.908Z,30.33
2022-12-03T01:39:25.583Z,34.42
2022-12-03T01:41:53.974Z,30.70
2022-12-03T01:44:26.540Z,31.67
2022-12-03T01:46:56.789Z,24.20
2022-12-03T01:49:27.489Z,29.08
2022-12-03T01:51:56.021Z,23.48
2022-12-03T01:54:37.384Z,28.77
2022-12-03T01:57:06.114Z,26.33
2022-12-03T01:59:38.458Z,25.35
2022-12-03T02:02:22.797Z,30.23
2022-12-03T02:04:52.378Z,27.08
2022-12-03T02:07:21.996Z,24.20
2022-12-03T02:09:49.897Z,25.23
2022-12-03T02:12:22.894Z,20.10
2022-12-03T02:14:51.025Z,25.95
2022-12-03T02:17:19.123Z,27.70
2022-12-03T02:19:47.596Z,25.67
2022-12-03T02:22:37.860Z,25.38
2022-12-03T02:25:26.667Z,29.33
2022-12-03T02:27:55.902Z,25.63
2022-12-03T02:30:25.167Z,28.38
2022-12-03T02:32:54.105Z,27.48
2022-12-03T02:35:24.831Z,27.88
2022-12-03T02:38:01.624Z,27.45
2022-12-03T02:40:32.406Z,28.10
2022-12-03T02:43:02.371Z,24.08
2022-12-03T02:45:33.112Z,25.35
2022-12-03T02:48:21.557Z,24.52
2022-12-03T02:51:09.686Z,25.27
2022-12-03T02:53:42.578Z,21.23
2022-12-03T02:56:14.350Z,22.80
2022-12-03T02:58:43.492Z,33.33
2022-12-03T03:01:12.146Z,26.67
2022-12-03T03:03:40.156Z,21.85
2022-12-03T03:06:08.926Z,26.63
2022-12-03T03:08:38.325Z,24.42
2022-12-03T03:11:06.283Z,23.13
2022-12-03T03:13:34.858Z,25.88
2022-12-03T03:16:07.228Z,24.17
2022-12-03T03:18:35.891Z,21.88
2022-12-03T03:21:04.629Z,19.98
2022-12-03T03:23:32.535Z,19.73
2022-12-03T03:26:03.779Z,23.67
2022-12-03T03:28:31.904Z,19.80
2022-12-03T03:31:01.982Z,23.70
2022-12-03T03:33:31.237Z,22.17
2022-12-03T03:36:00.827Z,16.98
2022-12-03T03:38:29.562Z,19.48
2022-12-03T03:40:58.183Z,22.67
2022-12-03T03:43:26.220Z,20.00
2022-12-03T03:45:55.141Z,21.38
2022-12-03T03:48:23.427Z,15.02
2022-12-03T03:50:51.891Z,21.75
2022-12-03T03:53:20.837Z,21.42
2022-12-03T03:55:48.766Z,18.13
2022-12-03T03:58:17.513Z,16.10
2022-12-03T04:00:46.223Z,18.63
2022-12-03T04:03:14.501Z,15.95
2022-12-03T04:05:42.625Z,23.52
2022-12-03T04:08:10.556Z,24.75
2022-12-03T04:10:57.074Z,19.95
2022-12-03T04:13:24.939Z,16.63
2022-12-03T04:15:52.835Z,20.30
2022-12-03T04:18:39.082Z,19.67
2022-12-03T04:21:25.695Z,12.68
2022-12-03T04:23:53.418Z,20.50
2022-12-03T04:26:40.003Z,17.15
2022-12-03T04:29:07.962Z,16.08
2022-12-03T04:31:54.593Z,18.80
2022-12-03T04:34:41.258Z,18.77
2022-12-03T04:37:09.347Z,18.90
2022-12-03T04:39:37.600Z,19.65
2022-12-03T04:42:06.490Z,19.30
2022-12-03T04:44:37.311Z,18.08
2022-12-03T04:47:11.581Z,18.98
2022-12-03T04:49:42.118Z,18.23
2022-12-03T04:52:11.130Z,20.30
2022-12-03T04:54:39.384Z,19.08
2022-12-03T04:57:08.525Z,28.08
2022-12-03T04:59:37.223Z,21.88
2022-12-03T05:02:06.126Z,26.67
2022-12-03T05:04:34.381Z,20.92
2022-12-03T05:07:02.264Z,17.48
2022-12-03T05:09:30.208Z,19.75
2022-12-03T05:11:58.150Z,23.10
2022-12-03T05:14:25.897Z,21.02
2022-12-03T05:16:53.764Z,21.88
2022-12-03T05:19:21.630Z,23.45
2022-12-03T05:21:49.301Z,19.52
2022-12-03T05:24:16.959Z,22.48
2022-12-03T05:26:44.833Z,21.13
2022-12-03T05:29:12.559Z,25.17
2022-12-03T05:31:40.330Z,25.60
2022-12-03T05:34:08.135Z,19.52
2022-12-03T05:36:35.869Z,22.48
2022-12-03T05:39:03.679Z,26.75
2022-12-03T05:41:49.882Z,20.75
2022-12-03T05:44:20.577Z,26.27
2022-12-03T05:46:48.768Z,21.57
2022-12-03T05:49:16.538Z,20.75
2022-12-03T05:51:44.304Z,19.60
2022-12-03T05:54:12.183Z,25.17
2022-12-03T05:56:39.958Z,23.50
2022-12-03T05:59:07.669Z,23.25
2022-12-03T06:01:35.485Z,23.08
2022-12-03T06:04:03.326Z,18.60
2022-12-03T06:06:31.304Z,22.20
2022-12-03T06:08:59.223Z,28.30
2022-12-03T06:11:30.123Z,34.55
2022-12-03T06:13:58.015Z,24.58
2022-12-03T06:16:25.744Z,36.63
2022-12-03T06:18:53.511Z,35.58
2022-12-03T06:21:21.515Z,34.17
2022-12-03T06:23:49.398Z,41.28
2022-12-03T06:26:17.340Z,34.63
2022-12-03T06:28:46.661Z,38.30
2022-12-03T06:31:15.204Z,36.75
2022-12-03T06:33:43.081Z,39.25
2022-12-03T06:36:10.987Z,38.53
2022-12-03T06:38:38.919Z,36.13
2022-12-03T06:41:07.014Z,38.15
2022-12-03T06:43:34.777Z,35.15
2022-12-03T06:46:03.014Z,32.42
2022-12-03T06:48:30.840Z,35.00
2022-12-03T06:50:58.635Z,35.33
2022-12-03T06:53:26.490Z,33.50
2022-12-03T06:55:54.334Z,31.48
2022-12-03T06:58:22.516Z,34.72
2022-12-03T07:00:50.407Z,30.08
2022-12-03T07:03:18.331Z,32.33
2022-12-03T07:05:46.204Z,32.67
2022-12-03T07:08:14.277Z,30.92
2022-12-03T07:10:42.078Z,30.33
2022-12-03T07:13:09.784Z,31.27
2022-12-03T07:15:37.452Z,38.65
2022-12-03T07:18:05.585Z,34.25
2022-12-03T07:20:33.377Z,33.15
2022-12-03T07:23:01.203Z,37.22
2022-12-03T07:25:29.298Z,36.22
2022-12-03T07:27:57.239Z,37.63
2022-12-03T07:30:25.935Z,40.97
2022-12-03T07:32:54.470Z,35.88
2022-12-03T07:35:22.647Z,37.45
2022-12-03T07:37:50.625Z,37.05
2022-12-03T07:40:18.603Z,31.90
2022-12-03T07:42:46.463Z,40.92
2022-12-03T07:45:14.530Z,42.40
2022-12-03T07:47:42.383Z,40.05
2022-12-03T07:50:11.835Z,40.90
2022-12-03T07:52:40.056Z,38.20
2022-12-03T07:55:08.397Z,39.47
2022-12-03T07:57:36.254Z,38.88
2022-12-03T08:00:06.225Z,40.40
2022-12-03T08:02:34.102Z,38.17
2022-12-03T08:05:02.088Z,36.20
2022-12-03T08:07:30.031Z,37.50
2022-12-03T08:09:58.270Z,36.33
2022-12-03T08:12:40.354Z,36.88
2022-12-03T08:15:18.677Z,37.30
2022-12-03T08:17:48.464Z,38.10
2022-12-03T08:20:18.920Z,36.30
2022-12-03T08:22:48.783Z,34.08
2022-12-03T08:25:27.838Z,40.03
2022-12-03T08:28:01.221Z,43.47
2022-12-03T08:30:30.610Z,38.17
2022-12-03T08:32:59.122Z,33.15
2022-12-03T08:35:29.944Z,38.58
2022-12-03T08:38:10.397Z,42.25
2022-12-03T08:40:43.082Z,36.17
2022-12-03T08:43:22.312Z,37.60
2022-12-03T08:45:51.290Z,38.38
2022-12-03T08:48:51.487Z,32.08
2022-12-03T08:51:20.755Z,38.72
2022-12-03T08:54:01.867Z,33.92
2022-12-03T08:56:32.241Z,39.50
2022-12-03T08:59:19.929Z,33.85
2022-12-03T09:01:48.299Z,36.75
2022-12-03T09:04:20.936Z,33.53
2022-12-03T09:06:48.772Z,34.28
2022-12-03T09:09:17.122Z,34.53
2022-12-03T09:11:45.198Z,39.58
2022-12-03T09:14:18.348Z,37.40
2022-12-03T09:16:47.000Z,35.25
2022-12-03T09:19:14.933Z,42.03
2022-12-03T09:21:42.765Z,36.05
2022-12-03T09:24:10.543Z,36.08
2022-12-03T09:26:38.414Z,38.10
2022-12-03T09:29:11.686Z,39.88
2022-12-03T09:31:40.210Z,35.60
2022-12-03T09:34:08.110Z,34.50
2022-12-03T09:36:36.059Z,32.72
2022-12-03T09:39:05.028Z,38.42
2022-12-03T09:41:32.930Z,37.88
2022-12-03T09:44:05.436Z,33.63
2022-12-03T09:46:35.524Z,32.13
2022-12-03T09:49:04.418Z,40.95
2022-12-03T09:51:34.894Z,30.75
2022-12-03T09:54:06.655Z,36.13
2022-12-03T09:56:37.776Z,33.33
2022-12-03T09:59:14.915Z,38.92
2022-12-03T10:01:43.716Z,40.85
2022-12-03T10:04:12.064Z,34.53
2022-12-03T10:06:45.540Z,33.63
2022-12-03T10:09:17.480Z,38.78
2022-12-03T10:11:45.856Z,31.40
2022-12-03T10:14:15.528Z,37.00
2022-12-03T10:16:43.614Z,39.75
2022-12-03T10:19:25.824Z,35.88
2022-12-03T10:21:53.793Z,41.22
2022-12-03T10:24:23.135Z,34.33
2022-12-03T10:26:53.289Z,36.65
2022-12-03T10:29:32.871Z,34.10
2022-12-03T10:32:10.250Z,33.20
2022-12-03T10:34:40.382Z,35.25
2022-12-03T10:37:18.147Z,36.38
2022-12-03T10:40:01.954Z,33.92
2022-12-03T10:42:32.178Z,41.60
2022-12-03T10:45:15.710Z,41.55
2022-12-03T10:47:45.136Z,40.78
2022-12-03T10:50:20.331Z,37.58
2022-12-03T10:52:48.464Z,32.45
2022-12-03T10:55:17.184Z,43.83
2022-12-03T10:57:46.370Z,45.45
2022-12-03T11:00:19.344Z,38.50
2022-12-03T11:02:56.084Z,44.22
2022-12-03T11:05:27.742Z,40.92
2022-12-03T11:07:56.083Z,43.07
2022-12-03T11:10:24.253Z,36.60
2022-12-03T11:13:30.962Z,41.85
2022-12-03T11:15:59.574Z,41.42
2022-12-03T11:18:39.983Z,42.78
2022-12-03T11:21:10.355Z,37.97
2022-12-03T11:23:47.411Z,44.92
2022-12-03T11:26:30.501Z,55.33
2022-12-03T11:28:59.158Z,38.97
2022-12-03T11:31:46.928Z,40.78
2022-12-03T11:34:20.946Z,39.88
2022-12-03T11:37:10.606Z,46.55
2022-12-03T11:39:53.446Z,43.97
2022-12-03T11:42:27.131Z,39.13
2022-12-03T11:45:04.038Z,63.88
2022-12-03T11:47:42.563Z,42.17
2022-12-03T11:50:33.644Z,40.70
2022-12-03T11:53:27.081Z,41.53
2022-12-03T11:56:11.029Z,43.55
2022-12-03T11:58:41.937Z,43.20
2022-12-03T12:01:10.398Z,46.58
2022-12-03T12:03:44.629Z,41.22
2022-12-03T12:06:13.759Z,40.40
2022-12-03T12:08:52.124Z,41.60
2022-12-03T12:11:34.906Z,37.92
2022-12-03T12:14:04.651Z,36.92
2022-12-03T12:16:50.367Z,39.03
2022-12-03T12:19:34.820Z,42.90
2022-12-03T12:22:29.703Z,42.97
2022-12-03T12:25:23.599Z,39.83
2022-12-03T12:27:53.977Z,41.60
2022-12-03T12:30:23.660Z,42.08
2022-12-03T12:33:10.962Z,38.00
2022-12-03T12:35:38.985Z,35.05
2022-12-03T12:38:11.483Z,38.80
2022-12-03T12:40:45.761Z,34.33
2022-12-03T12:43:26.653Z,41.30
2022-12-03T12:45:57.071Z,38.33
2022-12-03T12:48:35.948Z,39.67
2022-12-03T12:51:30.064Z,36.63
2022-12-03T12:53:58.756Z,42.28
2022-12-03T12:56:26.810Z,39.53
2022-12-03T12:58:55.476Z,43.33
2022-12-03T13:01:30.574Z,42.35
2022-12-03T13:03:59.687Z,40.35
2022-12-03T13:06:29.545Z,42.53
2022-12-03T13:08:58.658Z,40.22
2022-12-03T13:11:34.709Z,41.55
2022-12-03T13:14:22.651Z,34.92
2022-12-03T13:16:51.974Z,41.47
2022-12-03T13:19:31.052Z,43.78
2022-12-03T13:22:03.634Z,38.97
2022-12-03T13:24:45.323Z,38.83
2022-12-03T13:27:21.882Z,32.00
2022-12-03T13:30:16.644Z,36.15
2022-12-03T13:32:44.720Z,36.10
2022-12-03T13:35:36.309Z,39.63
2022-12-03T13:40:38.389Z,36.95
2022-12-03T13:43:12.763Z,37.67
2022-12-03T13:45:45.047Z,38.72
2022-12-03T13:48:35.048Z,39.65
2022-12-03T13:51:27.993Z,37.75
2022-12-03T13:53:56.124Z,43.55
2022-12-03T13:56:31.079Z,42.20
2022-12-03T13:59:00.704Z,42.58
2022-12-03T14:01:28.852Z,40.17
2022-12-03T14:03:57.353Z,37.38
2022-12-03T14:06:25.538Z,32.20
2022-12-03T14:08:53.367Z,37.25
2022-12-03T14:11:39.429Z,36.65
2022-12-03T14:14:07.300Z,32.95
2022-12-03T14:16:35.133Z,34.70
2022-12-03T14:19:03.271Z,39.28
2022-12-03T14:21:31.115Z,41.13
2022-12-03T14:23:58.954Z,38.25
2022-12-03T14:26:27.040Z,34.30
2022-12-03T14:28:55.054Z,42.92
2022-12-03T14:31:22.985Z,39.40
2022-12-03T14:33:51.256Z,39.25
2022-12-03T14:36:21.597Z,36.05
2022-12-03T14:38:49.461Z,32.80
2022-12-03T14:41:35.598Z,39.90
2022-12-03T14:44:03.466Z,38.88
2022-12-03T14:46:33.864Z,40.35
2022-12-03T14:49:01.687Z,39.08
2022-12-03T14:51:29.656Z,41.38
2022-12-03T14:53:57.494Z,39.22
2022-12-03T14:56:25.430Z,38.42
2022-12-03T14:58:53.251Z,38.88
2022-12-03T15:01:21.131Z,37.10
2022-12-03T15:03:49.127Z,46.38
2022-12-03T15:06:17.054Z,40.20
2022-12-03T15:08:45.212Z,35.70
2022-12-03T15:11:13.007Z,42.13
2022-12-03T15:13:40.875Z,40.20
2022-12-03T15:16:08.991Z,41.40
2022-12-03T15:18:36.949Z,43.58
2022-12-03T15:21:04.745Z,40.67
2022-12-03T15:23:37.399Z,46.28
2022-12-03T15:26:06.061Z,40.90
2022-12-03T15:28:34.180Z,36.38
2022-12-03T15:31:02.342Z,40.60
2022-12-03T15:33:30.318Z,34.90
2022-12-03T15:35:58.311Z,40.08
2022-12-03T15:38:26.195Z,36.20
2022-12-03T15:40:54.034Z,42.70
2022-12-03T15:43:21.926Z,39.70
2022-12-03T15:45:49.773Z,40.35
2022-12-03T15:48:17.707Z,39.78
2022-12-03T15:50:45.980Z,39.25
2022-12-03T15:53:13.884Z,42.53
2022-12-03T15:55:41.772Z,41.13
2022-12-03T15:58:09.407Z,38.83
2022-12-03T16:00:37.182Z,38.50
2022-12-03T16:03:05.039Z,38.42
2022-12-03T16:05:32.790Z,39.03
2022-12-03T16:08:00.705Z,41.35
2022-12-03T16:10:28.690Z,37.15
2022-12-03T16:12:56.714Z,39.83
2022-12-03T16:15:27.252Z,43.88
2022-12-03T16:17:55.550Z,33.65
2022-12-03T16:20:23.399Z,43.08
2022-12-03T16:22:52.233Z,38.92
2022-12-03T16:25:20.073Z,39.95
2022-12-03T16:27:47.776Z,41.47
2022-12-03T16:30:15.831Z,36.15
2022-12-03T16:32:43.940Z,41.30
2022-12-03T16:35:11.880Z,34.67
2022-12-03T16:37:39.789Z,39.55
2022-12-03T16:40:08.513Z,39.70
2022-12-03T16:42:37.645Z,39.88
2022-12-03T16:45:09.172Z,38.00
2022-12-03T16:47:37.115Z,39.92
2022-12-03T16:50:11.692Z,45.42
2022-12-03T16:52:43.902Z,34.15
2022-12-03T16:55:11.844Z,39.38
2022-12-03T16:57:39.727Z,39.88
2022-12-03T17:00:08.530Z,42.38
2022-12-03T17:02:36.470Z,36.78
2022-12-03T17:05:04.535Z,40.38
2022-12-03T17:07:32.327Z,40.10
2022-12-03T17:10:00.278Z,36.67
2022-12-03T17:12:42.171Z,48.22
2022-12-03T17:15:16.050Z,39.65
2022-12-03T17:17:44.104Z,43.65
2022-12-03T17:20:13.474Z,43.20
2022-12-03T17:22:41.858Z,38.72
2022-12-03T17:25:10.637Z,39.05
2022-12-03T17:27:44.845Z,39.88
2022-12-03T17:30:14.064Z,43.97
2022-12-03T17:32:42.092Z,43.92
2022-12-03T17:35:11.115Z,39.58
2022-12-03T17:37:40.626Z,38.25
2022-12-03T17:40:10.347Z,32.70
2022-12-03T17:42:38.224Z,47.60
2022-12-03T17:45:08.012Z,42.08
2022-12-03T17:47:36.368Z,42.15
2022-12-03T17:50:04.458Z,45.40
2022-12-03T17:52:32.729Z,42.53
2022-12-03T17:55:26.176Z,37.20
2022-12-03T17:57:48.653Z,42.33
2022-12-03T18:00:16.580Z,42.85
2022-12-03T18:02:44.465Z,43.38
2022-12-03T18:05:13.965Z,39.90
2022-12-03T18:07:42.022Z,38.80
2022-12-03T18:10:10.509Z,42.60
2022-12-03T18:12:38.505Z,44.10
2022-12-03T18:15:06.779Z,43.67
2022-12-03T18:17:34.563Z,45.60
2022-12-03T18:20:02.473Z,45.75
2022-12-03T18:22:30.453Z,42.58
2022-12-03T18:24:58.373Z,36.53
2022-12-03T18:27:26.229Z,41.47
2022-12-03T18:29:54.233Z,45.45
2022-12-03T18:32:30.178Z,40.67
2022-12-03T18:34:58.610Z,43.03
2022-12-03T18:37:30.707Z,34.67
2022-12-03T18:39:59.384Z,42.97
2022-12-03T18:42:27.795Z,43.10
2022-12-03T18:44:57.097Z,42.15
2022-12-03T18:47:29.528Z,39.55
2022-12-03T18:49:58.184Z,43.08
2022-12-03T18:52:26.259Z,41.90
2022-12-03T18:54:55.456Z,47.20
2022-12-03T18:57:23.374Z,43.15
2022-12-03T18:59:52.097Z,52.10
2022-12-03T19:02:54.148Z,42.22
2022-12-03T19:05:12.263Z,43.05
2022-12-03T19:07:40.111Z,38.22
2022-12-03T19:10:09.274Z,40.75
2022-12-03T19:12:37.972Z,45.42
2022-12-03T19:15:06.874Z,42.90
2022-12-03T19:17:34.633Z,37.20
2022-12-03T19:20:04.438Z,36.95
2022-12-03T19:22:32.265Z,46.13
2022-12-03T19:25:00.279Z,39.90
2022-12-03T19:27:31.725Z,42.85
2022-12-03T19:29:59.806Z,38.97
2022-12-03T19:32:27.595Z,43.80
2022-12-03T19:34:55.248Z,41.47
2022-12-03T19:37:23.002Z,45.33
2022-12-03T19:39:54.539Z,43.90
2022-12-03T19:44:50.291Z,40.67
2022-12-03T19:47:18.169Z,43.10
2022-12-03T19:49:45.996Z,40.15
2022-12-03T19:52:13.715Z,45.88
2022-12-03T19:54:41.415Z,42.80
2022-12-03T19:57:09.279Z,42.53
2022-12-03T19:59:37.104Z,43.28
2022-12-03T20:02:05.074Z,40.53
2022-12-03T20:04:33.015Z,38.58
2022-12-03T20:07:00.892Z,42.50
2022-12-03T20:09:28.950Z,47.40
2022-12-03T20:11:56.931Z,40.42
2022-12-03T20:14:25.226Z,46.83
2022-12-03T20:16:53.271Z,48.00
2022-12-03T20:19:21.085Z,49.45
2022-12-03T20:21:48.944Z,49.80
2022-12-03T20:24:18.367Z,43.50
2022-12-03T20:26:46.743Z,40.40
2022-12-03T20:29:14.698Z,41.78
2022-12-03T20:31:42.581Z,39.08
2022-12-03T20:34:11.483Z,47.50
2022-12-03T20:36:40.177Z,43.22
2022-12-03T20:39:08.589Z,38.70
2022-12-03T20:41:37.491Z,37.55
2022-12-03T20:44:07.781Z,45.00
2022-12-03T20:46:36.378Z,41.50
2022-12-03T20:49:04.902Z,36.60
2022-12-03T20:51:33.451Z,42.90
2022-12-03T20:54:02.663Z,38.33
2022-12-03T20:56:39.608Z,40.85
2022-12-03T20:59:10.645Z,37.92
2022-12-03T21:01:39.170Z,44.00
2022-12-03T21:04:07.966Z,41.05
2022-12-03T21:06:37.183Z,33.85
2022-12-03T21:09:07.014Z,34.60
2022-12-03T21:11:36.128Z,36.28
2022-12-03T21:14:04.695Z,40.38
2022-12-03T21:19:24.078Z,43.63
2022-12-03T21:21:51.856Z,38.40
2022-12-03T21:24:19.637Z,40.85
2022-12-03T21:26:47.846Z,44.25
2022-12-03T21:29:16.319Z,46.38
2022-12-03T21:31:44.355Z,40.70
2022-12-03T21:34:12.350Z,44.13
2022-12-03T21:36:40.362Z,40.92
2022-12-03T21:39:08.720Z,44.80
2022-12-03T21:41:36.514Z,43.08
2022-12-03T21:44:04.968Z,53.30
2022-12-03T21:47:09.949Z,46.17
2022-12-03T21:49:20.646Z,41.25
2022-12-03T21:51:48.850Z,47.78
2022-12-03T21:54:16.969Z,45.15
2022-12-03T21:56:44.866Z,45.67
2022-12-03T21:59:12.686Z,42.70
2022-12-03T22:01:45.543Z,41.95
2022-12-03T22:04:14.932Z,41.75
2022-12-03T22:06:43.117Z,43.45
2022-12-03T22:09:10.995Z,39.42
2022-12-03T22:11:39.006Z,38.67
2022-12-03T22:14:08.398Z,49.40
2022-12-03T22:16:36.492Z,41.10
2022-12-03T22:19:04.721Z,40.50
2022-12-03T22:21:32.585Z,40.80
2022-12-03T22:24:00.358Z,36.65
2022-12-03T22:26:28.292Z,35.95
2022-12-03T22:28:56.094Z,37.65
2022-12-03T22:31:24.079Z,40.30
2022-12-03T22:33:51.901Z,41.22
2022-12-03T22:36:21.753Z,37.10
2022-12-03T22:38:50.874Z,34.75
2022-12-03T22:41:19.602Z,46.90
2022-12-03T22:43:48.347Z,32.13
2022-12-03T22:46:16.797Z,42.78
2022-12-03T22:48:48.405Z,39.45
2022-12-03T22:51:21.803Z,42.90
2022-12-03T22:53:56.492Z,41.45
2022-12-03T22:56:25.139Z,44.85
2022-12-03T22:58:53.040Z,45.10
2022-12-03T23:01:32.685Z,42.80
2022-12-03T23:04:00.733Z,40.28
2022-12-03T23:06:29.976Z,39.10
2022-12-03T23:08:58.655Z,41.58
2022-12-03T23:11:27.317Z,35.05
2022-12-03T23:13:55.377Z,38.75
2022-12-03T23:16:26.481Z,39.22
2022-12-03T23:18:54.549Z,38.63
2022-12-03T23:21:29.983Z,46.38
2022-12-03T23:23:59.367Z,46.63
2022-12-03T23:26:27.584Z,41.72
2022-12-03T23:28:55.547Z,41.03
2022-12-03T23:31:29.814Z,40.95
2022-12-03T23:33:58.791Z,35.50
2022-12-03T23:36:28.395Z,40.72
2022-12-03T23:38:56.262Z,43.80
2022-12-03T23:41:25.113Z,38.60
2022-12-03T23:43:53.074Z,40.50
2022-12-03T23:46:26.283Z,38.15
2022-12-03T23:48:54.234Z,42.08
2022-12-03T23:51:24.599Z,36.70
2022-12-03T23:53:53.376Z,38.67
2022-12-03T23:56:29.828Z,39.88
2022-12-03T23:58:58.570Z,34.72
